Arbuckle, WV

8:13 AM EDT on October 01, 2014 (GMT -0400)
Pebble Creek | Change Station
CLOSE
Current Station
Personal Weather Station
Location: Fraziers Bottom, WV
Elevation: 560 ft
Nearby Weather Stations

Elev 560 ft 38.56 °N, 81.99 °W | Updated 13 minutes ago

Overcast
Overcast
59.3 °F
Feels Like 59.3 °F
N
0.0
Wind Variable Wind from NW
Gusts 1.0 mph

Today
High -- | Low -- °F
--% Chance of Precip.
Yesterday
High -- | Low -- °F
Precip. -- in
7:23 AM 7:10 PM
Waxing Crescent, 47% visible
Pressure 30.02 in
Visibility 7.0 miles
Clouds Overcast 800 ft
Dew Point 57 °F
Humidity 91%
Rainfall 0.00 in
Snow Depth Not available.
UV 0 out of 12
Pollen 2.90 out of 12
Air Quality Not available.
Flu Activity Not available.
METAR K3I2 011135Z AUTO 00000KT 7SM OVC008 15/13 A3002 RMK AO2

More Conditions Fewer Conditions

Pressure 30.02 in
Visibility 7.0 miles
Clouds Overcast 800 ft
Dew Point 57 °F
Humidity 91%
Rainfall 0.00 in
Snow Depth Not available.
UV 0 out of 12
Pollen 2.90 out of 12
Air Quality Not available.
Flu Activity Not available.
METAR K3I2 011135Z AUTO 00000KT 7SM OVC008 15/13 A3002 RMK AO2

More Conditions Fewer Conditions

10-Day Weather Forecast

Almanac

Astronomy

Oct. 01, 2014 Rise Set
Actual Time 7:23 AM EDT 7:10 PM EDT
Civil Twilight 6:57 AM EDT 7:36 PM EDT
Nautical Twilight 6:26 AM EDT 8:07 PM EDT
Astronomical Twilight 5:55 AM EDT 8:38 PM EDT
Moon 2:20 PM EDT No Moon Set
Length of Visible Light 12h 39m
Length of Day
11h 46m
Tomorrow will be 2m 30s shorter.
Waxing Crescent, 47% of the Moon is Illuminated
Today
Waxing Crescent
Oct 1
First Quarter
Oct 8
Full
Oct 15
Last Quarter
Oct 23
New

Today's Extremes

State Highs State Lows

Community

WunderPhotos

Upload Photos

1,757,914 photos uploaded!

WunderBlogs® & News

Nearby

Snow Depth

Station Depth Elevation
No new snow has been reported.

Earthquake Activity

City Distance Mag. Time & Date
No recent earthquake activity has been reported nearby.
Minimum magnitude displayed is 2.5.

Coastal Water Temperatures

Place Temperature
No Stations Reporting

Nearby Weather Stations